Nicholville, New York
Current Conditions -  °F | °C
As of 8:53 PM on Wednesday 22 Oct 2014 (Local Time) from KMSS Reporting Station
Overcast Overcast  
Wind Chill: 44°   Ceiling: 8000
Heat Index: 49°   Visibility: 10mi
Dew Point: 35°   Wind: 14mph
Humidity: 59%   Direction: 30°NNE
Pressure: 30.22"   Gusts: NA
Location:  44.7°N, 74.66°W
Report Text: KMSS 230053Z AUTO 03012KT 10SM OVC080 09/02 A3022 RMK AO2 SLP235 T00940017
Loading
Personal Weather Stations






























Interactive Weather Map
Tropical Storm Tracking
New forecast layout! Learn more

10-Day Weather Forecast

Advertisements
Track Severe Weather on mobile